sensor_id;sensor_type;location;lat;lon;timestamp;P1;durP1;ratioP1;P2;durP2;ratioP2
69369;SDS011;56530;42.640;23.372;2023-12-07T00:01:52;21.48;;;19.33;;
69369;SDS011;56530;42.640;23.372;2023-12-07T00:04:18;22.30;;;19.83;;
69369;SDS011;56530;42.640;23.372;2023-12-07T00:06:43;24.23;;;21.70;;
69369;SDS011;56530;42.640;23.372;2023-12-07T00:09:08;22.37;;;19.97;;
69369;SDS011;56530;42.640;23.372;2023-12-07T00:11:34;21.45;;;19.35;;
69369;SDS011;56530;42.640;23.372;2023-12-07T00:13:59;20.52;;;18.40;;
69369;SDS011;56530;42.640;23.372;2023-12-07T00:16:24;23.13;;;20.73;;
69369;SDS011;56530;42.640;23.372;2023-12-07T00:18:50;22.70;;;20.40;;
69369;SDS011;56530;42.640;23.372;2023-12-07T00:21:15;23.50;;;21.10;;
69369;SDS011;56530;42.640;23.372;2023-12-07T00:23:40;25.43;;;22.87;;
69369;SDS011;56530;42.640;23.372;2023-12-07T00:26:06;26.35;;;23.65;;
69369;SDS011;56530;42.640;23.372;2023-12-07T00:28:31;26.03;;;23.23;;
69369;SDS011;56530;42.640;23.372;2023-12-07T00:30:57;28.27;;;23.97;;
69369;SDS011;56530;42.640;23.372;2023-12-07T00:33:22;26.33;;;23.52;;
69369;SDS011;56530;42.640;23.372;2023-12-07T00:35:48;26.98;;;23.98;;
69369;SDS011;56530;42.640;23.372;2023-12-07T00:38:13;28.90;;;24.17;;
69369;SDS011;56530;42.640;23.372;2023-12-07T00:40:39;25.55;;;22.85;;
69369;SDS011;56530;42.640;23.372;2023-12-07T00:43:05;24.77;;;22.17;;
69369;SDS011;56530;42.640;23.372;2023-12-07T00:45:31;24.27;;;21.85;;
69369;SDS011;56530;42.640;23.372;2023-12-07T00:47:56;25.30;;;22.80;;
69369;SDS011;56530;42.640;23.372;2023-12-07T00:50:21;24.90;;;22.33;;
69369;SDS011;56530;42.640;23.372;2023-12-07T00:52:47;26.50;;;23.25;;
69369;SDS011;56530;42.640;23.372;2023-12-07T00:55:12;28.10;;;25.30;;
69369;SDS011;56530;42.640;23.372;2023-12-07T00:57:38;27.73;;;24.85;;
69369;SDS011;56530;42.640;23.372;2023-12-07T01:00:03;29.75;;;26.60;;
69369;SDS011;56530;42.640;23.372;2023-12-07T01:02:30;32.88;;;28.95;;
69369;SDS011;56530;42.640;23.372;2023-12-07T01:04:56;32.03;;;28.20;;
69369;SDS011;56530;42.640;23.372;2023-12-07T01:07:21;33.13;;;28.83;;
69369;SDS011;56530;42.640;23.372;2023-12-07T01:09:46;31.73;;;27.63;;
69369;SDS011;56530;42.640;23.372;2023-12-07T01:12:12;33.38;;;29.08;;
69369;SDS011;56530;42.640;23.372;2023-12-07T01:14:37;32.60;;;29.00;;
69369;SDS011;56530;42.640;23.372;2023-12-07T01:17:03;31.35;;;27.48;;
69369;SDS011;56530;42.640;23.372;2023-12-07T01:19:28;33.22;;;28.95;;
69369;SDS011;56530;42.640;23.372;2023-12-07T01:21:54;33.67;;;29.35;;
69369;SDS011;56530;42.640;23.372;2023-12-07T01:24:19;34.60;;;28.48;;
69369;SDS011;56530;42.640;23.372;2023-12-07T01:26:44;33.28;;;29.02;;
69369;SDS011;56530;42.640;23.372;2023-12-07T01:29:10;35.30;;;30.48;;
69369;SDS011;56530;42.640;23.372;2023-12-07T01:31:35;33.93;;;29.30;;
69369;SDS011;56530;42.640;23.372;2023-12-07T01:34:01;32.22;;;28.65;;
69369;SDS011;56530;42.640;23.372;2023-12-07T01:36:26;35.22;;;28.98;;
69369;SDS011;56530;42.640;23.372;2023-12-07T01:38:51;32.70;;;29.30;;
69369;SDS011;56530;42.640;23.372;2023-12-07T01:41:17;31.27;;;27.17;;
69369;SDS011;56530;42.640;23.372;2023-12-07T01:43:46;31.85;;;27.55;;
69369;SDS011;56530;42.640;23.372;2023-12-07T01:46:12;32.78;;;29.25;;
69369;SDS011;56530;42.640;23.372;2023-12-07T01:48:38;35.53;;;31.40;;
69369;SDS011;56530;42.640;23.372;2023-12-07T01:51:03;33.95;;;30.30;;
69369;SDS011;56530;42.640;23.372;2023-12-07T01:53:29;33.83;;;30.20;;
69369;SDS011;56530;42.640;23.372;2023-12-07T01:55:55;35.15;;;30.98;;
69369;SDS011;56530;42.640;23.372;2023-12-07T01:58:20;33.63;;;29.70;;
69369;SDS011;56530;42.640;23.372;2023-12-07T02:00:46;32.60;;;29.03;;
69369;SDS011;56530;42.640;23.372;2023-12-07T02:03:12;34.80;;;31.00;;
69369;SDS011;56530;42.640;23.372;2023-12-07T02:05:37;33.80;;;29.47;;
69369;SDS011;56530;42.640;23.372;2023-12-07T02:08:08;35.07;;;31.27;;
69369;SDS011;56530;42.640;23.372;2023-12-07T02:10:33;33.45;;;28.30;;
69369;SDS011;56530;42.640;23.372;2023-12-07T02:12:59;33.00;;;28.33;;
69369;SDS011;56530;42.640;23.372;2023-12-07T02:15:24;33.53;;;29.87;;
69369;SDS011;56530;42.640;23.372;2023-12-07T02:20:29;33.22;;;25.58;;
69369;SDS011;56530;42.640;23.372;2023-12-07T02:23:03;30.17;;;25.77;;
69369;SDS011;56530;42.640;23.372;2023-12-07T02:25:32;32.78;;;27.85;;
69369;SDS011;56530;42.640;23.372;2023-12-07T02:28:28;34.35;;;29.60;;
69369;SDS011;56530;42.640;23.372;2023-12-07T02:30:53;32.47;;;28.65;;
69369;SDS011;56530;42.640;23.372;2023-12-07T02:33:18;33.13;;;29.38;;
69369;SDS011;56530;42.640;23.372;2023-12-07T02:35:44;32.08;;;28.67;;
69369;SDS011;56530;42.640;23.372;2023-12-07T02:38:09;31.90;;;27.67;;
69369;SDS011;56530;42.640;23.372;2023-12-07T02:40:35;32.63;;;27.33;;
69369;SDS011;56530;42.640;23.372;2023-12-07T02:43:00;31.17;;;27.70;;
69369;SDS011;56530;42.640;23.372;2023-12-07T02:45:26;31.67;;;27.30;;
69369;SDS011;56530;42.640;23.372;2023-12-07T02:47:52;31.27;;;27.98;;
69369;SDS011;56530;42.640;23.372;2023-12-07T02:50:17;31.35;;;27.42;;
69369;SDS011;56530;42.640;23.372;2023-12-07T02:52:43;30.80;;;25.80;;
69369;SDS011;56530;42.640;23.372;2023-12-07T02:55:08;28.63;;;25.33;;
69369;SDS011;56530;42.640;23.372;2023-12-07T02:57:34;31.67;;;26.23;;
69369;SDS011;56530;42.640;23.372;2023-12-07T02:59:59;30.30;;;25.38;;
69369;SDS011;56530;42.640;23.372;2023-12-07T03:02:25;32.37;;;27.60;;
69369;SDS011;56530;42.640;23.372;2023-12-07T03:04:50;34.28;;;30.67;;
69369;SDS011;56530;42.640;23.372;2023-12-07T03:07:16;33.60;;;28.88;;
69369;SDS011;56530;42.640;23.372;2023-12-07T03:09:41;32.33;;;26.58;;
69369;SDS011;56530;42.640;23.372;2023-12-07T03:12:07;33.58;;;28.80;;
69369;SDS011;56530;42.640;23.372;2023-12-07T03:14:33;32.60;;;29.00;;
69369;SDS011;56530;42.640;23.372;2023-12-07T03:16:58;34.57;;;29.73;;
69369;SDS011;56530;42.640;23.372;2023-12-07T03:19:23;33.17;;;28.10;;
69369;SDS011;56530;42.640;23.372;2023-12-07T03:21:49;33.57;;;25.97;;
69369;SDS011;56530;42.640;23.372;2023-12-07T03:24:14;32.33;;;27.30;;
69369;SDS011;56530;42.640;23.372;2023-12-07T03:26:40;30.38;;;26.95;;
69369;SDS011;56530;42.640;23.372;2023-12-07T03:29:05;30.13;;;26.77;;
69369;SDS011;56530;42.640;23.372;2023-12-07T03:31:31;31.77;;;27.27;;
69369;SDS011;56530;42.640;23.372;2023-12-07T03:33:56;30.67;;;26.63;;
69369;SDS011;56530;42.640;23.372;2023-12-07T03:36:22;29.42;;;25.50;;
69369;SDS011;56530;42.640;23.372;2023-12-07T03:38:48;30.10;;;26.90;;
69369;SDS011;56530;42.640;23.372;2023-12-07T03:41:14;32.65;;;28.20;;
69369;SDS011;56530;42.640;23.372;2023-12-07T03:43:39;32.23;;;27.73;;
69369;SDS011;56530;42.640;23.372;2023-12-07T03:46:05;30.10;;;26.87;;
69369;SDS011;56530;42.640;23.372;2023-12-07T03:48:31;31.15;;;27.35;;
69369;SDS011;56530;42.640;23.372;2023-12-07T03:50:57;30.13;;;26.60;;
69369;SDS011;56530;42.640;23.372;2023-12-07T03:53:22;29.55;;;26.40;;
69369;SDS011;56530;42.640;23.372;2023-12-07T03:55:48;27.95;;;24.92;;
69369;SDS011;56530;42.640;23.372;2023-12-07T03:58:13;27.77;;;24.95;;
69369;SDS011;56530;42.640;23.372;2023-12-07T04:00:39;31.38;;;25.35;;
69369;SDS011;56530;42.640;23.372;2023-12-07T04:03:04;27.63;;;23.80;;
69369;SDS011;56530;42.640;23.372;2023-12-07T04:05:30;26.13;;;22.77;;
69369;SDS011;56530;42.640;23.372;2023-12-07T04:07:55;28.63;;;25.10;;
69369;SDS011;56530;42.640;23.372;2023-12-07T04:10:21;28.10;;;25.10;;
69369;SDS011;56530;42.640;23.372;2023-12-07T04:12:46;28.50;;;25.17;;
69369;SDS011;56530;42.640;23.372;2023-12-07T04:15:12;29.08;;;24.10;;
69369;SDS011;56530;42.640;23.372;2023-12-07T04:17:37;27.98;;;24.85;;
69369;SDS011;56530;42.640;23.372;2023-12-07T04:20:02;26.93;;;23.07;;
69369;SDS011;56530;42.640;23.372;2023-12-07T04:22:28;25.95;;;21.38;;
69369;SDS011;56530;42.640;23.372;2023-12-07T04:24:54;28.23;;;23.48;;
69369;SDS011;56530;42.640;23.372;2023-12-07T04:27:19;28.30;;;25.30;;
69369;SDS011;56530;42.640;23.372;2023-12-07T04:29:44;27.05;;;24.25;;
69369;SDS011;56530;42.640;23.372;2023-12-07T04:32:10;26.60;;;23.75;;
69369;SDS011;56530;42.640;23.372;2023-12-07T04:34:36;28.13;;;23.83;;
69369;SDS011;56530;42.640;23.372;2023-12-07T04:37:02;26.35;;;23.50;;
69369;SDS011;56530;42.640;23.372;2023-12-07T04:39:28;28.42;;;23.70;;
69369;SDS011;56530;42.640;23.372;2023-12-07T04:41:53;25.63;;;20.35;;
69369;SDS011;56530;42.640;23.372;2023-12-07T04:44:19;27.25;;;23.30;;
69369;SDS011;56530;42.640;23.372;2023-12-07T04:46:44;26.80;;;22.83;;
69369;SDS011;56530;42.640;23.372;2023-12-07T04:49:09;26.27;;;23.50;;
69369;SDS011;56530;42.640;23.372;2023-12-07T04:51:35;28.13;;;25.13;;
69369;SDS011;56530;42.640;23.372;2023-12-07T04:54:00;27.17;;;24.20;;
69369;SDS011;56530;42.640;23.372;2023-12-07T04:56:26;27.58;;;24.63;;
69369;SDS011;56530;42.640;23.372;2023-12-07T04:58:51;26.30;;;23.42;;
69369;SDS011;56530;42.640;23.372;2023-12-07T05:01:16;28.45;;;24.60;;
69369;SDS011;56530;42.640;23.372;2023-12-07T05:03:44;26.15;;;23.38;;
69369;SDS011;56530;42.640;23.372;2023-12-07T05:06:09;26.52;;;23.73;;
69369;SDS011;56530;42.640;23.372;2023-12-07T05:08:35;25.17;;;22.67;;
69369;SDS011;56530;42.640;23.372;2023-12-07T05:11:00;25.67;;;22.95;;
69369;SDS011;56530;42.640;23.372;2023-12-07T05:13:26;24.40;;;22.00;;
69369;SDS011;56530;42.640;23.372;2023-12-07T05:15:51;25.53;;;22.83;;
69369;SDS011;56530;42.640;23.372;2023-12-07T05:18:16;26.98;;;24.05;;
69369;SDS011;56530;42.640;23.372;2023-12-07T05:20:42;25.30;;;21.73;;
69369;SDS011;56530;42.640;23.372;2023-12-07T05:23:08;26.23;;;22.80;;
69369;SDS011;56530;42.640;23.372;2023-12-07T05:25:33;27.23;;;19.95;;
69369;SDS011;56530;42.640;23.372;2023-12-07T05:27:59;22.25;;;19.80;;
69369;SDS011;56530;42.640;23.372;2023-12-07T05:30:24;25.20;;;20.90;;
69369;SDS011;56530;42.640;23.372;2023-12-07T05:32:49;18.13;;;11.20;;
69369;SDS011;56530;42.640;23.372;2023-12-07T05:35:15;18.40;;;15.70;;
69369;SDS011;56530;42.640;23.372;2023-12-07T05:37:41;18.60;;;15.07;;
69369;SDS011;56530;42.640;23.372;2023-12-07T05:40:06;16.35;;;14.60;;
69369;SDS011;56530;42.640;23.372;2023-12-07T05:42:33;16.65;;;13.98;;
69369;SDS011;56530;42.640;23.372;2023-12-07T05:44:58;18.83;;;14.30;;
69369;SDS011;56530;42.640;23.372;2023-12-07T05:47:24;18.52;;;16.58;;
69369;SDS011;56530;42.640;23.372;2023-12-07T05:49:50;19.33;;;17.13;;
69369;SDS011;56530;42.640;23.372;2023-12-07T05:52:16;21.73;;;17.55;;
69369;SDS011;56530;42.640;23.372;2023-12-07T05:54:41;20.98;;;18.02;;
69369;SDS011;56530;42.640;23.372;2023-12-07T05:57:12;18.95;;;16.13;;
69369;SDS011;56530;42.640;23.372;2023-12-07T05:59:38;19.30;;;16.83;;
69369;SDS011;56530;42.640;23.372;2023-12-07T06:02:04;19.33;;;16.95;;
69369;SDS011;56530;42.640;23.372;2023-12-07T06:04:29;22.00;;;16.90;;
69369;SDS011;56530;42.640;23.372;2023-12-07T06:06:55;22.58;;;17.52;;
69369;SDS011;56530;42.640;23.372;2023-12-07T06:09:20;20.83;;;17.58;;
69369;SDS011;56530;42.640;23.372;2023-12-07T06:11:46;19.60;;;17.55;;
69369;SDS011;56530;42.640;23.372;2023-12-07T06:14:11;18.85;;;16.88;;
69369;SDS011;56530;42.640;23.372;2023-12-07T06:16:37;19.80;;;17.17;;
69369;SDS011;56530;42.640;23.372;2023-12-07T06:19:02;20.10;;;17.35;;
69369;SDS011;56530;42.640;23.372;2023-12-07T06:21:28;20.10;;;18.00;;
69369;SDS011;56530;42.640;23.372;2023-12-07T06:23:55;21.70;;;19.42;;
69369;SDS011;56530;42.640;23.372;2023-12-07T06:26:20;20.02;;;18.02;;
69369;SDS011;56530;42.640;23.372;2023-12-07T06:28:46;21.67;;;19.40;;
69369;SDS011;56530;42.640;23.372;2023-12-07T06:31:12;22.02;;;19.67;;
69369;SDS011;56530;42.640;23.372;2023-12-07T06:33:40;24.52;;;19.13;;
69369;SDS011;56530;42.640;23.372;2023-12-07T06:36:05;22.50;;;20.20;;
69369;SDS011;56530;42.640;23.372;2023-12-07T06:38:31;21.45;;;19.35;;
69369;SDS011;56530;42.640;23.372;2023-12-07T06:40:56;21.55;;;19.33;;
69369;SDS011;56530;42.640;23.372;2023-12-07T06:43:22;21.58;;;19.52;;
69369;SDS011;56530;42.640;23.372;2023-12-07T06:45:47;22.90;;;20.63;;
69369;SDS011;56530;42.640;23.372;2023-12-07T06:48:18;22.92;;;20.55;;
69369;SDS011;56530;42.640;23.372;2023-12-07T06:50:46;25.80;;;21.35;;
69369;SDS011;56530;42.640;23.372;2023-12-07T06:53:14;21.95;;;19.70;;
69369;SDS011;56530;42.640;23.372;2023-12-07T06:55:41;23.20;;;20.30;;
69369;SDS011;56530;42.640;23.372;2023-12-07T06:58:08;23.38;;;21.02;;
69369;SDS011;56530;42.640;23.372;2023-12-07T07:00:34;27.08;;;20.73;;
69369;SDS011;56530;42.640;23.372;2023-12-07T07:03:01;22.38;;;20.13;;
69369;SDS011;56530;42.640;23.372;2023-12-07T07:05:26;22.60;;;20.25;;
69369;SDS011;56530;42.640;23.372;2023-12-07T07:07:52;22.38;;;20.00;;
69369;SDS011;56530;42.640;23.372;2023-12-07T07:10:17;23.97;;;18.37;;
69369;SDS011;56530;42.640;23.372;2023-12-07T07:12:43;23.08;;;16.65;;
69369;SDS011;56530;42.640;23.372;2023-12-07T07:15:08;17.23;;;15.40;;
69369;SDS011;56530;42.640;23.372;2023-12-07T07:17:34;19.25;;;16.60;;
69369;SDS011;56530;42.640;23.372;2023-12-07T07:19:59;16.77;;;14.60;;
69369;SDS011;56530;42.640;23.372;2023-12-07T07:22:24;19.30;;;16.13;;
69369;SDS011;56530;42.640;23.372;2023-12-07T07:24:50;16.95;;;15.00;;
69369;SDS011;56530;42.640;23.372;2023-12-07T07:27:15;17.88;;;15.27;;
69369;SDS011;56530;42.640;23.372;2023-12-07T07:29:41;17.42;;;15.73;;
69369;SDS011;56530;42.640;23.372;2023-12-07T07:32:06;17.83;;;15.20;;
69369;SDS011;56530;42.640;23.372;2023-12-07T07:34:32;17.90;;;16.00;;
69369;SDS011;56530;42.640;23.372;2023-12-07T07:36:58;19.13;;;15.13;;
69369;SDS011;56530;42.640;23.372;2023-12-07T07:39:23;14.63;;;13.02;;
69369;SDS011;56530;42.640;23.372;2023-12-07T07:41:48;15.40;;;12.95;;
69369;SDS011;56530;42.640;23.372;2023-12-07T07:44:14;17.02;;;13.45;;
69369;SDS011;56530;42.640;23.372;2023-12-07T07:46:42;16.02;;;12.88;;
69369;SDS011;56530;42.640;23.372;2023-12-07T07:49:07;15.02;;;13.32;;
69369;SDS011;56530;42.640;23.372;2023-12-07T07:51:33;16.50;;;14.70;;
69369;SDS011;56530;42.640;23.372;2023-12-07T07:53:59;21.00;;;15.40;;
69369;SDS011;56530;42.640;23.372;2023-12-07T07:56:24;19.90;;;17.75;;
69369;SDS011;56530;42.640;23.372;2023-12-07T07:58:50;23.10;;;20.60;;
69369;SDS011;56530;42.640;23.372;2023-12-07T08:01:15;21.03;;;18.93;;
69369;SDS011;56530;42.640;23.372;2023-12-07T08:03:41;23.07;;;19.00;;
69369;SDS011;56530;42.640;23.372;2023-12-07T08:06:06;20.08;;;17.98;;
69369;SDS011;56530;42.640;23.372;2023-12-07T08:08:32;21.47;;;19.17;;
69369;SDS011;56530;42.640;23.372;2023-12-07T08:10:59;20.87;;;18.87;;
69369;SDS011;56530;42.640;23.372;2023-12-07T08:13:26;20.53;;;18.43;;
69369;SDS011;56530;42.640;23.372;2023-12-07T08:15:52;19.77;;;17.70;;
69369;SDS011;56530;42.640;23.372;2023-12-07T08:18:18;17.77;;;15.43;;
69369;SDS011;56530;42.640;23.372;2023-12-07T08:20:44;16.47;;;13.73;;
69369;SDS011;56530;42.640;23.372;2023-12-07T08:23:10;14.03;;;12.33;;
69369;SDS011;56530;42.640;23.372;2023-12-07T08:25:36;11.90;;;10.77;;
69369;SDS011;56530;42.640;23.372;2023-12-07T08:28:03;11.63;;;10.43;;
69369;SDS011;56530;42.640;23.372;2023-12-07T08:30:28;10.53;;;9.57;;
69369;SDS011;56530;42.640;23.372;2023-12-07T08:32:54;12.17;;;9.83;;
69369;SDS011;56530;42.640;23.372;2023-12-07T08:35:19;11.33;;;10.00;;
69369;SDS011;56530;42.640;23.372;2023-12-07T08:37:45;11.10;;;10.00;;
69369;SDS011;56530;42.640;23.372;2023-12-07T08:40:10;10.60;;;9.50;;
69369;SDS011;56530;42.640;23.372;2023-12-07T08:42:36;10.45;;;9.38;;
69369;SDS011;56530;42.640;23.372;2023-12-07T08:45:02;10.37;;;9.23;;
69369;SDS011;56530;42.640;23.372;2023-12-07T08:47:27;10.25;;;9.25;;
69369;SDS011;56530;42.640;23.372;2023-12-07T08:49:55;9.23;;;7.83;;
69369;SDS011;56530;42.640;23.372;2023-12-07T08:52:20;10.15;;;9.05;;
69369;SDS011;56530;42.640;23.372;2023-12-07T08:54:45;9.93;;;8.93;;
69369;SDS011;56530;42.640;23.372;2023-12-07T08:57:12;9.43;;;8.30;;
69369;SDS011;56530;42.640;23.372;2023-12-07T08:59:37;8.57;;;7.68;;
69369;SDS011;56530;42.640;23.372;2023-12-07T09:02:02;7.70;;;6.63;;
69369;SDS011;56530;42.640;23.372;2023-12-07T09:04:28;7.60;;;6.80;;
69369;SDS011;56530;42.640;23.372;2023-12-07T09:06:53;7.22;;;6.43;;
69369;SDS011;56530;42.640;23.372;2023-12-07T09:09:19;6.70;;;6.10;;
69369;SDS011;56530;42.640;23.372;2023-12-07T09:11:45;5.80;;;5.30;;
69369;SDS011;56530;42.640;23.372;2023-12-07T09:14:10;8.17;;;6.03;;
69369;SDS011;56530;42.640;23.372;2023-12-07T09:16:42;6.13;;;5.63;;
69369;SDS011;56530;42.640;23.372;2023-12-07T09:19:11;6.68;;;5.95;;
69369;SDS011;56530;42.640;23.372;2023-12-07T09:21:37;6.67;;;5.80;;
69369;SDS011;56530;42.640;23.372;2023-12-07T09:24:03;7.53;;;6.00;;
69369;SDS011;56530;42.640;23.372;2023-12-07T09:26:30;6.43;;;5.82;;
69369;SDS011;56530;42.640;23.372;2023-12-07T09:28:56;5.30;;;4.80;;
69369;SDS011;56530;42.640;23.372;2023-12-07T09:31:21;5.20;;;4.03;;
69369;SDS011;56530;42.640;23.372;2023-12-07T09:33:46;6.37;;;5.40;;
69369;SDS011;56530;42.640;23.372;2023-12-07T09:36:14;5.53;;;4.88;;
69369;SDS011;56530;42.640;23.372;2023-12-07T09:38:43;4.83;;;4.33;;
69369;SDS011;56530;42.640;23.372;2023-12-07T09:41:08;4.50;;;3.87;;
69369;SDS011;56530;42.640;23.372;2023-12-07T09:43:34;5.00;;;4.23;;
69369;SDS011;56530;42.640;23.372;2023-12-07T09:45:59;4.95;;;3.90;;
69369;SDS011;56530;42.640;23.372;2023-12-07T09:48:25;4.53;;;3.07;;
69369;SDS011;56530;42.640;23.372;2023-12-07T09:50:50;4.68;;;2.95;;
69369;SDS011;56530;42.640;23.372;2023-12-07T09:53:17;3.80;;;2.97;;
69369;SDS011;56530;42.640;23.372;2023-12-07T09:55:43;3.60;;;3.03;;
69369;SDS011;56530;42.640;23.372;2023-12-07T09:58:08;2.90;;;2.70;;
69369;SDS011;56530;42.640;23.372;2023-12-07T10:00:34;2.80;;;2.33;;
69369;SDS011;56530;42.640;23.372;2023-12-07T10:03:00;2.40;;;2.20;;
69369;SDS011;56530;42.640;23.372;2023-12-07T10:05:25;2.90;;;2.40;;
69369;SDS011;56530;42.640;23.372;2023-12-07T10:07:50;2.97;;;2.43;;
69369;SDS011;56530;42.640;23.372;2023-12-07T10:10:16;2.87;;;2.33;;
69369;SDS011;56530;42.640;23.372;2023-12-07T10:12:46;2.47;;;2.28;;
69369;SDS011;56530;42.640;23.372;2023-12-07T10:15:24;3.00;;;2.70;;
69369;SDS011;56530;42.640;23.372;2023-12-07T10:20:16;2.47;;;2.27;;
69369;SDS011;56530;42.640;23.372;2023-12-07T10:22:48;2.15;;;2.05;;
69369;SDS011;56530;42.640;23.372;2023-12-07T10:25:14;2.78;;;1.98;;
69369;SDS011;56530;42.640;23.372;2023-12-07T10:27:43;2.07;;;1.97;;
69369;SDS011;56530;42.640;23.372;2023-12-07T10:30:09;2.80;;;2.50;;
69369;SDS011;56530;42.640;23.372;2023-12-07T10:32:37;2.50;;;2.30;;
69369;SDS011;56530;42.640;23.372;2023-12-07T10:35:05;5.53;;;4.53;;
69369;SDS011;56530;42.640;23.372;2023-12-07T10:37:31;3.10;;;2.38;;
69369;SDS011;56530;42.640;23.372;2023-12-07T10:39:57;3.17;;;2.40;;
69369;SDS011;56530;42.640;23.372;2023-12-07T10:42:23;2.53;;;2.03;;
69369;SDS011;56530;42.640;23.372;2023-12-07T10:44:49;3.08;;;2.30;;
69369;SDS011;56530;42.640;23.372;2023-12-07T10:47:15;1.98;;;1.88;;
69369;SDS011;56530;42.640;23.372;2023-12-07T10:49:43;2.33;;;2.13;;
69369;SDS011;56530;42.640;23.372;2023-12-07T10:52:12;2.00;;;1.90;;
69369;SDS011;56530;42.640;23.372;2023-12-07T10:54:41;2.38;;;2.17;;
69369;SDS011;56530;42.640;23.372;2023-12-07T10:57:24;2.97;;;2.07;;
69369;SDS011;56530;42.640;23.372;2023-12-07T10:59:50;2.87;;;2.00;;
69369;SDS011;56530;42.640;23.372;2023-12-07T11:02:16;2.10;;;1.90;;
69369;SDS011;56530;42.640;23.372;2023-12-07T11:04:43;1.77;;;1.67;;
69369;SDS011;56530;42.640;23.372;2023-12-07T11:07:13;2.20;;;2.03;;
69369;SDS011;56530;42.640;23.372;2023-12-07T11:09:43;1.65;;;1.55;;
69369;SDS011;56530;42.640;23.372;2023-12-07T11:12:12;1.85;;;1.75;;
69369;SDS011;56530;42.640;23.372;2023-12-07T11:14:42;2.00;;;1.70;;
69369;SDS011;56530;42.640;23.372;2023-12-07T11:17:08;1.80;;;1.70;;
69369;SDS011;56530;42.640;23.372;2023-12-07T11:22:05;2.65;;;2.45;;
69369;SDS011;56530;42.640;23.372;2023-12-07T11:24:31;2.30;;;2.10;;
69369;SDS011;56530;42.640;23.372;2023-12-07T11:26:57;2.63;;;1.90;;
69369;SDS011;56530;42.640;23.372;2023-12-07T11:29:30;2.28;;;2.10;;
69369;SDS011;56530;42.640;23.372;2023-12-07T11:31:57;2.60;;;2.40;;
69369;SDS011;56530;42.640;23.372;2023-12-07T11:37:01;2.40;;;2.20;;
69369;SDS011;56530;42.640;23.372;2023-12-07T11:39:27;2.03;;;1.70;;
69369;SDS011;56530;42.640;23.372;2023-12-07T11:41:54;2.10;;;2.00;;
69369;SDS011;56530;42.640;23.372;2023-12-07T11:44:36;1.88;;;1.70;;
69369;SDS011;56530;42.640;23.372;2023-12-07T11:47:02;3.67;;;1.95;;
69369;SDS011;56530;42.640;23.372;2023-12-07T11:49:28;2.23;;;2.03;;
69369;SDS011;56530;42.640;23.372;2023-12-07T11:51:54;2.10;;;1.98;;
69369;SDS011;56530;42.640;23.372;2023-12-07T11:54:19;3.27;;;2.90;;
69369;SDS011;56530;42.640;23.372;2023-12-07T11:56:46;2.13;;;1.85;;
69369;SDS011;56530;42.640;23.372;2023-12-07T11:59:17;2.10;;;1.90;;
69369;SDS011;56530;42.640;23.372;2023-12-07T12:01:46;2.10;;;2.00;;
69369;SDS011;56530;42.640;23.372;2023-12-07T12:04:12;2.30;;;2.10;;
69369;SDS011;56530;42.640;23.372;2023-12-07T12:06:37;2.20;;;2.00;;
69369;SDS011;56530;42.640;23.372;2023-12-07T12:09:03;2.50;;;2.30;;
69369;SDS011;56530;42.640;23.372;2023-12-07T12:11:28;2.20;;;2.00;;
69369;SDS011;56530;42.640;23.372;2023-12-07T12:13:54;3.50;;;2.23;;
69369;SDS011;56530;42.640;23.372;2023-12-07T12:16:19;2.10;;;2.00;;
69369;SDS011;56530;42.640;23.372;2023-12-07T12:18:44;2.67;;;2.00;;
69369;SDS011;56530;42.640;23.372;2023-12-07T12:21:10;1.95;;;1.85;;
69369;SDS011;56530;42.640;23.372;2023-12-07T12:23:35;2.20;;;2.10;;
69369;SDS011;56530;42.640;23.372;2023-12-07T12:26:01;2.10;;;2.00;;
69369;SDS011;56530;42.640;23.372;2023-12-07T12:28:27;2.80;;;2.15;;
69369;SDS011;56530;42.640;23.372;2023-12-07T12:30:52;3.47;;;2.30;;
69369;SDS011;56530;42.640;23.372;2023-12-07T12:33:19;2.37;;;2.20;;
69369;SDS011;56530;42.640;23.372;2023-12-07T12:35:45;2.77;;;2.50;;
69369;SDS011;56530;42.640;23.372;2023-12-07T12:38:10;2.30;;;2.10;;
69369;SDS011;56530;42.640;23.372;2023-12-07T12:40:37;2.30;;;2.17;;
69369;SDS011;56530;42.640;23.372;2023-12-07T12:43:02;2.43;;;2.23;;
69369;SDS011;56530;42.640;23.372;2023-12-07T12:45:27;2.90;;;2.20;;
69369;SDS011;56530;42.640;23.372;2023-12-07T12:47:53;2.33;;;2.13;;
69369;SDS011;56530;42.640;23.372;2023-12-07T12:50:33;2.83;;;2.10;;
69369;SDS011;56530;42.640;23.372;2023-12-07T12:53:06;2.47;;;2.28;;
69369;SDS011;56530;42.640;23.372;2023-12-07T12:55:39;2.85;;;2.40;;
69369;SDS011;56530;42.640;23.372;2023-12-07T12:58:06;2.42;;;2.15;;
69369;SDS011;56530;42.640;23.372;2023-12-07T13:00:33;2.60;;;2.40;;
69369;SDS011;56530;42.640;23.372;2023-12-07T13:02:59;2.42;;;2.28;;
69369;SDS011;56530;42.640;23.372;2023-12-07T13:05:26;2.37;;;2.17;;
69369;SDS011;56530;42.640;23.372;2023-12-07T13:07:53;2.90;;;2.40;;
69369;SDS011;56530;42.640;23.372;2023-12-07T13:10:18;2.30;;;2.10;;
69369;SDS011;56530;42.640;23.372;2023-12-07T13:12:44;2.70;;;2.50;;
69369;SDS011;56530;42.640;23.372;2023-12-07T13:15:10;3.20;;;2.67;;
69369;SDS011;56530;42.640;23.372;2023-12-07T13:17:37;3.22;;;2.95;;
69369;SDS011;56530;42.640;23.372;2023-12-07T13:20:03;3.65;;;3.35;;
69369;SDS011;56530;42.640;23.372;2023-12-07T13:22:31;3.30;;;3.10;;
69369;SDS011;56530;42.640;23.372;2023-12-07T13:24:57;3.70;;;3.40;;
69369;SDS011;56530;42.640;23.372;2023-12-07T13:27:22;3.87;;;3.40;;
69369;SDS011;56530;42.640;23.372;2023-12-07T13:29:48;4.90;;;4.40;;
69369;SDS011;56530;42.640;23.372;2023-12-07T13:32:15;3.80;;;3.50;;
69369;SDS011;56530;42.640;23.372;2023-12-07T13:34:40;3.80;;;3.50;;
69369;SDS011;56530;42.640;23.372;2023-12-07T13:37:06;5.13;;;3.50;;
69369;SDS011;56530;42.640;23.372;2023-12-07T13:39:31;4.23;;;3.83;;
69369;SDS011;56530;42.640;23.372;2023-12-07T13:41:57;3.97;;;3.67;;
69369;SDS011;56530;42.640;23.372;2023-12-07T13:44:23;4.30;;;3.90;;
69369;SDS011;56530;42.640;23.372;2023-12-07T13:46:49;3.43;;;3.13;;
69369;SDS011;56530;42.640;23.372;2023-12-07T13:49:14;4.50;;;3.47;;
69369;SDS011;56530;42.640;23.372;2023-12-07T13:51:40;3.93;;;3.57;;
69369;SDS011;56530;42.640;23.372;2023-12-07T13:54:06;4.03;;;3.63;;
69369;SDS011;56530;42.640;23.372;2023-12-07T13:56:33;3.70;;;3.40;;
69369;SDS011;56530;42.640;23.372;2023-12-07T13:58:59;4.28;;;3.75;;
69369;SDS011;56530;42.640;23.372;2023-12-07T14:01:25;4.60;;;3.50;;
69369;SDS011;56530;42.640;23.372;2023-12-07T14:03:51;3.20;;;3.00;;
69369;SDS011;56530;42.640;23.372;2023-12-07T14:06:23;3.38;;;3.08;;
69369;SDS011;56530;42.640;23.372;2023-12-07T14:08:49;4.00;;;3.60;;
69369;SDS011;56530;42.640;23.372;2023-12-07T14:11:16;4.63;;;3.63;;
69369;SDS011;56530;42.640;23.372;2023-12-07T14:13:43;4.10;;;3.70;;
69369;SDS011;56530;42.640;23.372;2023-12-07T14:16:08;3.77;;;3.57;;
69369;SDS011;56530;42.640;23.372;2023-12-07T14:18:34;4.43;;;4.03;;
69369;SDS011;56530;42.640;23.372;2023-12-07T14:20:59;4.70;;;4.30;;
69369;SDS011;56530;42.640;23.372;2023-12-07T14:23:25;5.90;;;4.20;;